Time;durP1;ratioP1;P1;durP2;ratioP2;P2;SDS_P1;SDS_P2;PMS_P1;PMS_P2;Temp;Humidity;BMP_temperature;BMP_pressure;BME280_temperature;BME280_humidity;BME280_pressure;Samples;Min_cycle;Max_cycle;Signal;HPM_P1;HPM_P2
2022/06/05 00:01:43;;;;;;;21.58;17.15;;;;;;;18.86;99.02;97743.66;10333272;28;20061;-63
2022/06/05 00:06:59;;;;;;;20.55;16.33;;;;;;;18.73;98.30;97722.19;10333304;28;20519;-63
2022/06/05 00:12:05;;;;;;;21.38;16.42;;;;;;;18.87;98.29;97739.25;10336206;28;20053;-63
2022/06/05 00:17:09;;;;;;;20.88;15.90;;;;;;;18.80;98.63;97743.88;10333348;28;20068;-64
2022/06/05 00:22:08;;;;;;;21.35;17.15;;;;;;;18.68;98.26;97733.75;10335394;28;20076;-63
2022/06/05 00:27:23;;;;;;;23.55;16.80;;;;;;;18.71;98.54;97737.13;10335753;28;20068;-63
2022/06/05 00:32:35;;;;;;;22.88;17.25;;;;;;;18.75;98.62;97738.75;10336124;28;20443;-63
2022/06/05 00:37:48;;;;;;;23.23;16.48;;;;;;;18.69;98.54;97735.47;10335283;28;20069;-63
2022/06/05 00:42:48;;;;;;;21.17;17.05;;;;;;;18.60;98.88;97737.50;10336022;28;20076;-63
2022/06/05 00:47:48;;;;;;;27.58;17.38;;;;;;;18.68;99.02;97752.13;10334374;28;20077;-63
2022/06/05 00:52:51;;;;;;;23.58;16.52;;;;;;;18.46;100.00;97760.75;10333986;28;20500;-64
2022/06/05 00:57:52;;;;;;;22.88;16.73;;;;;;;18.45;100.00;97768.66;10333531;28;20123;-64
2022/06/05 01:02:54;;;;;;;21.50;15.63;;;;;;;18.47;100.00;97761.59;10333545;28;20134;-64
2022/06/05 01:07:53;;;;;;;24.33;16.23;;;;;;;18.47;99.60;97756.34;10337299;28;20064;-64
2022/06/05 01:13:10;;;;;;;21.67;15.93;;;;;;;18.44;99.44;97756.44;10336679;28;20122;-64
2022/06/05 01:18:24;;;;;;;21.90;16.88;;;;;;;18.33;98.96;97733.13;10340242;28;20742;-64
2022/06/05 01:23:41;;;;;;;23.00;17.02;;;;;;;18.38;98.88;97747.84;10338791;28;20080;-63
2022/06/05 01:28:54;;;;;;;23.63;17.75;;;;;;;18.20;99.30;97732.69;10336628;28;20073;-64
2022/06/05 01:34:03;;;;;;;23.30;17.45;;;;;;;18.19;99.39;97734.44;10338481;28;20065;-64
2022/06/05 01:39:14;;;;;;;23.65;17.33;;;;;;;18.16;99.38;97738.94;10338365;28;20068;-63
2022/06/05 01:44:28;;;;;;;23.00;17.10;;;;;;;18.08;99.44;97730.44;10339115;28;20053;-64
2022/06/05 01:49:42;;;;;;;26.45;18.13;;;;;;;17.92;99.67;97723.06;10336664;28;20073;-64
2022/06/05 01:54:54;;;;;;;21.08;16.48;;;;;;;18.00;99.95;97735.94;10339430;28;20132;-63
2022/06/05 02:00:00;;;;;;;21.83;16.27;;;;;;;18.02;99.75;97747.25;10337971;28;20064;-64
2022/06/05 02:05:15;;;;;;;23.88;16.80;;;;;;;17.84;99.64;97718.94;10338512;28;20069;-64
2022/06/05 02:10:25;;;;;;;21.58;16.67;;;;;;;17.99;99.73;97749.97;10336799;28;20549;-64
2022/06/05 02:15:26;;;;;;;23.25;16.77;;;;;;;17.73;99.63;97706.09;10337516;28;20829;-64
2022/06/05 02:20:25;;;;;;;24.35;16.85;;;;;;;17.92;99.21;97737.94;10335977;28;20076;-64
2022/06/05 02:25:25;;;;;;;20.42;15.93;;;;;;;17.88;99.30;97731.06;10338592;28;20069;-64
2022/06/05 02:30:30;;;;;;;24.02;16.55;;;;;;;17.70;99.12;97703.56;10337275;28;20681;-64
2022/06/05 02:35:41;;;;;;;25.40;15.77;;;;;;;17.73;99.69;97730.59;10335701;28;20076;-64
2022/06/05 02:41:04;;;;;;;23.70;16.10;;;;;;;17.55;99.41;97697.03;10335942;28;20072;-64
2022/06/05 02:46:12;;;;;;;23.38;15.70;;;;;;;17.70;99.26;97728.03;10333538;28;20119;-64
2022/06/05 02:51:22;;;;;;;23.08;14.77;;;;;;;17.67;99.25;97733.41;10334831;28;20511;-64
2022/06/05 02:56:22;;;;;;;20.50;14.52;;;;;;;17.62;99.22;97735.31;10334587;28;20075;-64
2022/06/05 03:06:42;;;;;;;18.35;13.77;;;;;;;17.58;98.96;97725.78;10336312;28;20068;-64
2022/06/05 03:11:42;;;;;;;18.17;14.52;;;;;;;17.65;98.63;97736.97;10333168;28;20488;-64
2022/06/05 03:16:41;;;;;;;21.95;15.20;;;;;;;17.45;98.68;97698.19;10335931;28;20069;-64
2022/06/05 03:21:40;;;;;;;20.33;14.73;;;;;;;17.52;98.97;97726.00;10333946;28;20053;-64
2022/06/05 03:26:39;;;;;;;21.13;14.27;;;;;;;17.49;98.95;97732.16;10335594;28;20072;-64
2022/06/05 03:31:38;;;;;;;18.42;14.18;;;;;;;17.47;99.13;97741.00;10334330;28;20072;-64
2022/06/05 03:36:37;;;;;;;18.90;13.50;;;;;;;17.30;99.11;97726.59;10334954;28;20029;-64
2022/06/05 03:41:36;;;;;;;17.23;12.35;;;;;;;17.33;99.27;97731.78;10334979;28;20034;-64
2022/06/05 03:46:39;;;;;;;18.77;12.52;;;;;;;17.47;99.20;97757.63;10334033;28;20486;-64
2022/06/05 03:51:38;;;;;;;18.50;11.43;;;;;;;17.55;99.61;97755.59;10350049;28;20497;-64
2022/06/05 03:56:38;;;;;;;14.43;11.52;;;;;;;17.70;99.56;97750.81;10331710;28;20077;-64
2022/06/05 04:01:37;;;;;;;15.80;11.77;;;;;;;17.74;99.28;97726.19;10334535;28;20512;-64
2022/06/05 04:06:36;;;;;;;15.82;12.73;;;;;;;18.02;98.70;97747.25;10334075;28;20550;-64
2022/06/05 04:11:38;;;;;;;18.30;13.40;;;;;;;18.18;98.37;97752.88;10332079;28;20060;-64
2022/06/05 04:16:40;;;;;;;13.50;11.40;;;;;;;18.35;97.46;97757.59;10333929;28;20056;-64
2022/06/05 04:21:41;;;;;;;13.30;10.68;;;;;;;18.46;97.13;97760.75;10332391;28;20076;-64
2022/06/05 04:26:42;;;;;;;12.68;10.10;;;;;;;18.39;95.89;97717.19;10333109;28;20091;-64
2022/06/05 04:31:46;;;;;;;13.40;9.60;;;;;;;18.82;95.98;97742.03;10332176;28;20077;-64
2022/06/05 04:36:46;;;;;;;13.73;10.07;;;;;;;18.96;94.19;97731.06;10333280;28;20069;-64
2022/06/05 04:41:46;;;;;;;14.55;10.65;;;;;;;19.07;93.32;97721.00;10330686;28;20076;-64
2022/06/05 04:46:46;;;;;;;13.38;10.90;;;;;;;19.38;92.74;97738.31;10333134;28;20061;-64
2022/06/05 04:51:44;;;;;;;16.45;10.25;;;;;;;19.47;91.74;97724.81;10332633;28;20069;-64
2022/06/05 04:56:44;;;;;;;15.20;10.65;;;;;;;19.54;89.05;97735.97;10329919;28;20044;-64
2022/06/05 05:01:43;;;;;;;18.52;12.02;;;;;;;19.65;90.21;97747.00;10332442;28;20073;-64
2022/06/05 05:06:44;;;;;;;15.50;12.70;;;;;;;19.76;90.64;97743.94;10330549;28;20072;-64
2022/06/05 05:11:43;;;;;;;18.92;13.60;;;;;;;19.91;90.48;97739.84;10334012;28;20069;-64
2022/06/05 05:16:42;;;;;;;17.92;12.63;;;;;;;20.02;89.90;97742.94;10334376;28;20056;-64
2022/06/05 05:21:41;;;;;;;18.25;13.25;;;;;;;20.33;90.39;97761.03;10335736;28;20088;-64
2022/06/05 05:26:41;;;;;;;18.98;13.40;;;;;;;20.59;89.48;97764.41;10335490;28;20108;-64
2022/06/05 05:31:42;;;;;;;19.17;12.77;;;;;;;20.83;88.67;97762.53;10331598;28;20073;-64
2022/06/05 05:36:42;;;;;;;18.25;11.95;;;;;;;21.08;87.47;97762.34;10335617;28;20056;-64
2022/06/05 05:47:22;;;;;;;15.35;12.15;;;;;;;21.55;85.81;97762.06;10280356;28;20073;-64
2022/06/05 05:52:22;;;;;;;16.08;13.52;;;;;;;21.68;84.11;97736.78;10293841;28;20066;-64
2022/06/05 05:57:21;;;;;;;20.45;13.98;;;;;;;22.04;83.00;97756.28;10300392;28;20100;-64
2022/06/05 06:02:22;;;;;;;17.25;12.38;;;;;;;22.32;83.39;97758.47;10300029;28;20594;-64
2022/06/05 06:07:21;;;;;;;18.70;12.98;;;;;;;22.46;80.22;97745.47;10298947;28;20070;-64
2022/06/05 06:12:21;;;;;;;17.60;13.60;;;;;;;22.75;79.86;97762.53;10298935;28;20049;-64
2022/06/05 06:17:20;;;;;;;20.38;14.02;;;;;;;22.99;78.70;97749.00;10296013;28;20570;-64
2022/06/05 06:22:20;;;;;;;22.10;13.65;;;;;;;23.14;79.00;97724.41;10295388;28;20137;-64
2022/06/05 06:27:19;;;;;;;22.10;13.70;;;;;;;23.56;77.42;97759.28;10297295;28;20073;-64
2022/06/05 06:32:18;;;;;;;18.15;13.95;;;;;;;23.60;77.81;97740.50;10293519;28;20100;-64
2022/06/05 06:37:20;;;;;;;18.60;13.13;;;;;;;23.77;75.77;97741.38;10295524;28;20458;-64
2022/06/05 06:42:19;;;;;;;19.73;12.77;;;;;;;23.86;73.95;97738.22;10293686;28;20509;-64
2022/06/05 06:47:18;;;;;;;19.83;13.30;;;;;;;23.93;74.64;97729.00;10295141;28;20480;-64
2022/06/05 06:52:17;;;;;;;19.52;13.13;;;;;;;24.29;73.10;97743.81;10295171;28;20064;-64
2022/06/05 06:57:17;;;;;;;17.90;11.93;;;;;;;24.42;72.76;97750.13;10294866;28;20058;-64
2022/06/05 07:02:15;;;;;;;22.40;12.38;;;;;;;24.52;71.32;97744.28;10295377;28;20061;-64
2022/06/05 07:07:14;;;;;;;14.70;10.75;;;;;;;24.54;70.50;97748.56;10292154;28;20029;-64
2022/06/05 07:12:14;;;;;;;12.60;9.10;;;;;;;24.73;71.32;97758.97;10327302;28;20033;-64
2022/06/05 07:17:13;;;;;;;13.93;9.45;;;;;;;25.06;69.57;97752.66;10294659;28;20057;-64
2022/06/05 07:22:12;;;;;;;11.35;9.02;;;;;;;25.19;69.02;97723.53;10295007;28;20069;-64
2022/06/05 07:27:11;;;;;;;14.18;9.63;;;;;;;25.55;67.14;97733.75;10293430;28;20029;-64
2022/06/05 07:32:11;;;;;;;12.75;8.57;;;;;;;25.61;64.41;97725.38;10294645;28;20497;-64
2022/06/05 07:37:10;;;;;;;15.38;8.88;;;;;;;25.42;64.36;97719.50;10295259;28;20061;-64
2022/06/05 07:42:11;;;;;;;10.80;7.25;;;;;;;25.59;61.38;97716.66;10292730;28;20061;-64
2022/06/05 07:47:10;;;;;;;10.32;7.38;;;;;;;25.79;60.41;97709.25;10292624;28;20073;-64
2022/06/05 07:57:28;;;;;;;11.00;7.20;;;;;;;26.21;55.60;97713.63;10294768;28;20069;-64
2022/06/05 08:02:28;;;;;;;9.10;6.72;;;;;;;26.30;56.56;97713.03;10293190;28;20018;-64
2022/06/05 08:07:29;;;;;;;13.73;7.03;;;;;;;26.31;56.57;97703.22;10289503;28;20076;-64
2022/06/05 08:12:30;;;;;;;9.25;6.38;;;;;;;26.42;56.63;97698.06;10293546;28;20053;-64
2022/06/05 08:17:30;;;;;;;11.35;7.18;;;;;;;26.50;56.32;97697.53;10279346;28;20159;-64
2022/06/05 08:22:30;;;;;;;8.93;5.90;;;;;;;26.35;54.15;97683.47;10292245;28;20068;-64
2022/06/05 08:27:29;;;;;;;11.02;6.75;;;;;;;26.63;56.18;97689.56;10289572;28;20053;-64
2022/06/05 08:32:28;;;;;;;8.68;5.90;;;;;;;26.64;53.47;97704.59;10263678;28;20061;-64
2022/06/05 08:42:57;;;;;;;10.32;5.50;;;;;;;27.01;51.15;97691.50;10291271;28;20069;-64
2022/06/05 08:48:09;;;;;;;8.90;3.70;;;;;;;27.15;44.82;97689.56;10288110;28;20073;-63
2022/06/05 08:53:14;;;;;;;6.65;4.30;;;;;;;27.48;44.83;97685.53;10281412;28;20063;-64
2022/06/05 08:58:23;;;;;;;8.15;4.03;;;;;;;27.43;43.61;97679.63;10229502;28;20073;-65
2022/06/05 09:03:30;;;;;;;7.13;4.15;;;;;;;27.39;42.71;97681.66;10263489;28;20069;-64
2022/06/05 09:08:33;;;;;;;7.03;4.40;;;;;;;27.57;45.57;97687.53;10287606;28;20804;-64
2022/06/05 09:13:42;;;;;;;6.68;5.13;;;;;;;27.63;48.81;97672.91;10284130;28;20050;-64
2022/06/05 09:18:46;;;;;;;7.00;4.97;;;;;;;27.62;45.36;97673.88;10291952;28;20070;-64
2022/06/05 09:24:08;;;;;;;9.82;5.05;;;;;;;27.65;46.23;97670.13;10287765;28;20113;-64
2022/06/05 09:29:16;;;;;;;6.50;4.95;;;;;;;27.76;46.73;97673.72;10294587;28;20061;-64
2022/06/05 09:34:22;;;;;;;8.65;5.13;;;;;;;27.74;47.16;97673.00;10298089;28;20053;-64
2022/06/05 09:39:45;;;;;;;6.72;5.13;;;;;;;27.70;49.49;97671.50;10299009;28;20068;-64
2022/06/05 09:45:02;;;;;;;8.85;5.70;;;;;;;27.70;48.17;97668.00;10296477;28;20068;-64
2022/06/05 09:50:11;;;;;;;7.82;5.25;;;;;;;27.79;48.67;97652.16;10295221;28;20069;-64
2022/06/05 09:55:13;;;;;;;;;;;;;;;27.73;48.59;97665.97;10295701;28;20049;-64
2022/06/05 10:00:24;;;;;;;9.25;5.00;;;;;;;27.69;48.54;97656.47;10296539;28;19963;-64
2022/06/05 10:05:27;;;;;;;12.80;5.18;;;;;;;27.72;48.13;97660.72;10295723;28;20058;-64
2022/06/05 10:10:35;;;;;;;11.02;5.40;;;;;;;27.67;47.77;97633.56;10299031;28;20418;-64
2022/06/05 10:16:02;;;;;;;8.00;4.77;;;;;;;27.86;47.14;97673.06;10298474;28;20064;-64
2022/06/05 10:21:06;;;;;;;6.05;4.50;;;;;;;27.85;46.26;97620.72;10300206;28;20088;-64
2022/06/05 10:26:26;;;;;;;6.53;4.95;;;;;;;28.21;46.21;97652.66;10299856;28;20471;-64
2022/06/05 10:31:30;;;;;;;6.05;4.07;;;;;;;28.31;44.47;97635.97;10300355;28;20481;-64
2022/06/05 10:36:47;;;;;;;6.93;3.83;;;;;;;28.15;44.47;97615.78;10298863;28;20053;-64
2022/06/05 10:41:52;;;;;;;7.35;4.03;;;;;;;28.29;43.26;97630.78;10299258;28;20528;-64
2022/06/05 10:46:51;;;;;;;4.53;2.85;;;;;;;28.32;41.74;97627.84;10299060;28;20058;-64
2022/06/05 10:51:57;;;;;;;5.70;3.60;;;;;;;28.59;42.63;97624.88;10298283;28;20030;-64
2022/06/05 10:57:25;;;;;;;6.82;3.65;;;;;;;28.69;42.04;97618.88;10298561;28;21055;-64
2022/06/05 11:02:36;;;;;;;5.97;3.20;;;;;;;28.73;41.65;97609.66;10298602;28;20044;-64
2022/06/05 11:08:03;;;;;;;5.63;3.40;;;;;;;28.90;41.74;97608.34;10299471;28;20061;-64
2022/06/05 11:18:44;;;;;;;4.57;2.97;;;;;;;28.92;40.86;97611.75;10295448;28;20073;-64
2022/06/05 11:23:49;;;;;;;3.60;2.63;;;;;;;28.75;40.24;97581.03;10294953;28;20442;-64
2022/06/05 11:29:02;;;;;;;6.65;2.85;;;;;;;28.99;40.25;97604.97;10294065;28;20069;-64
2022/06/05 11:34:27;;;;;;;3.08;2.50;;;;;;;29.21;39.71;97606.81;10294973;28;20473;-64
2022/06/05 11:40:01;;;;;;;4.22;2.90;;;;;;;29.49;40.25;97600.13;10294070;28;20057;-64
2022/06/05 11:45:03;;;;;;;5.25;2.65;;;;;;;29.59;38.86;97595.72;10283612;28;20076;-64
2022/06/05 11:50:32;;;;;;;4.60;2.47;;;;;;;29.57;39.20;97604.84;10291016;28;20072;-64
2022/06/05 11:55:45;;;;;;;4.43;2.97;;;;;;;29.56;38.28;97593.31;10294554;28;20061;-64
2022/06/05 12:00:48;;;;;;;6.30;2.67;;;;;;;29.64;37.68;97600.69;10293351;28;20065;-65
2022/06/05 12:06:08;;;;;;;3.67;2.70;;;;;;;29.55;37.26;97574.72;10294061;28;20061;-63
2022/06/05 12:11:13;;;;;;;3.83;2.38;;;;;;;29.87;35.17;97572.09;10291284;28;20079;-63
2022/06/05 12:16:34;;;;;;;3.83;2.47;;;;;;;30.03;36.14;97574.34;10292704;28;20053;-63
2022/06/05 12:21:52;;;;;;;6.03;2.45;;;;;;;29.75;33.73;97579.28;10290709;28;20087;-63
2022/06/05 12:26:57;;;;;;;3.65;2.00;;;;;;;29.70;34.93;97584.16;10291787;28;20076;-64
2022/06/05 12:32:39;;;;;;;4.78;2.60;;;;;;;29.88;34.60;97560.41;10291904;28;20454;-63
2022/06/05 12:37:53;;;;;;;4.13;2.45;;;;;;;29.65;35.85;97556.97;10292538;28;20073;-64
2022/06/05 12:43:15;;;;;;;3.95;2.30;;;;;;;29.76;33.97;97567.59;10292444;28;20176;-63
2022/06/05 12:48:28;;;;;;;5.65;2.03;;;;;;;30.15;33.94;97557.25;10292034;28;20068;-64
2022/06/05 12:53:51;;;;;;;4.93;2.28;;;;;;;30.22;34.06;97553.09;10292272;28;20072;-63
2022/06/05 12:58:59;;;;;;;6.53;2.38;;;;;;;30.40;34.44;97545.38;10290874;28;20556;-64
2022/06/05 13:04:02;;;;;;;4.70;2.30;;;;;;;30.54;35.02;97546.88;10294821;28;20065;-63
2022/06/05 13:09:20;;;;;;;3.25;2.00;;;;;;;30.44;32.58;97543.25;10299088;28;20069;-64
2022/06/05 13:14:48;;;;;;;2.85;2.20;;;;;;;30.24;33.62;97528.88;10303063;28;20061;-63
2022/06/05 13:19:58;;;;;;;4.45;2.72;;;;;;;30.22;34.07;97533.50;10303216;28;20066;-64
2022/06/05 13:25:02;;;;;;;3.90;2.10;;;;;;;30.47;32.56;97529.63;10302235;28;20462;-64
2022/06/05 13:30:06;;;;;;;5.95;2.42;;;;;;;30.32;32.10;97529.91;10302314;28;20072;-64
2022/06/05 13:35:20;;;;;;;3.70;2.35;;;;;;;30.55;33.16;97532.47;10300421;28;20091;-64
2022/06/05 13:40:37;;;;;;;3.63;2.67;;;;;;;30.66;33.03;97519.00;10301531;28;20069;-64
2022/06/05 13:45:47;;;;;;;4.03;2.20;;;;;;;30.66;33.20;97534.25;10301905;28;20466;-64
2022/06/05 13:50:56;;;;;;;3.80;2.53;;;;;;;30.83;34.03;97530.94;10302222;28;20072;-64
2022/06/05 13:56:19;;;;;;;5.75;2.38;;;;;;;31.11;34.16;97524.00;10300412;28;20057;-64
2022/06/05 14:01:32;;;;;;;4.40;2.30;;;;;;;31.28;33.09;97524.34;10302262;28;20515;-64
2022/06/05 14:06:33;;;;;;;4.82;2.83;;;;;;;31.07;34.42;97511.03;10299346;28;20065;-64
2022/06/05 14:11:43;;;;;;;3.95;2.63;;;;;;;30.91;34.58;97507.00;10300291;28;20057;-64
2022/06/05 14:16:48;;;;;;;4.30;2.60;;;;;;;30.74;34.51;97505.78;10297484;28;20061;-64
2022/06/05 14:21:54;;;;;;;5.18;2.80;;;;;;;30.83;33.68;97497.94;10294445;28;20081;-64
2022/06/05 14:26:57;;;;;;;7.28;2.80;;;;;;;30.84;34.90;97499.63;10295585;28;20147;-64
2022/06/05 14:31:56;;;;;;;6.40;1.90;;;;;;;30.75;33.32;97493.25;10296671;28;20073;-64
2022/06/05 14:37:06;;;;;;;5.43;2.78;;;;;;;30.60;34.95;97481.19;10297638;28;20033;-64
2022/06/05 14:42:23;;;;;;;5.00;2.33;;;;;;;30.52;34.68;97485.41;10296247;28;20065;-64
2022/06/05 14:47:29;;;;;;;2.85;2.45;;;;;;;30.22;35.04;97482.66;10294471;28;20543;-64
2022/06/05 14:52:43;;;;;;;5.65;2.65;;;;;;;30.16;34.84;97488.53;10297295;28;20061;-64
2022/06/05 14:57:51;;;;;;;5.05;2.40;;;;;;;29.98;34.54;97470.38;10294729;28;20073;-64
2022/06/05 15:03:08;;;;;;;;;;;;;;;30.18;35.06;97482.06;10296699;28;20061;-64
2022/06/05 15:08:21;;;;;;;4.22;2.40;;;;;;;29.92;35.71;97465.56;10294295;28;19967;-64
2022/06/05 15:13:48;;;;;;;5.25;2.58;;;;;;;29.86;36.83;97463.38;10295587;28;20493;-64
2022/06/05 15:18:50;;;;;;;6.57;2.67;;;;;;;30.04;36.13;97477.03;10294175;28;20111;-64
2022/06/05 15:24:26;;;;;;;8.50;3.55;;;;;;;30.01;35.71;97469.28;10295711;28;20080;-64
2022/06/05 15:29:52;;;;;;;4.88;3.08;;;;;;;30.11;37.17;97470.19;10293337;28;20061;-64
2022/06/05 15:35:09;;;;;;;5.22;2.30;;;;;;;30.06;36.08;97462.53;10294073;28;20520;-64
2022/06/05 15:40:34;;;;;;;5.45;2.38;;;;;;;29.89;35.61;97463.16;10293026;28;20840;-64
2022/06/05 15:46:17;;;;;;;5.18;2.90;;;;;;;29.74;35.33;97462.56;10294351;28;20496;-64
2022/06/05 15:51:24;;;;;;;4.22;2.50;;;;;;;29.63;35.64;97470.66;10231955;28;20073;-64
2022/06/05 15:56:44;;;;;;;4.38;2.80;;;;;;;29.65;36.82;97476.72;10252771;28;20074;-64
2022/06/05 16:01:47;;;;;;;4.47;2.88;;;;;;;29.47;36.83;97455.88;10277822;28;20505;-64
2022/06/05 16:06:57;;;;;;;3.08;2.55;;;;;;;29.44;37.13;97466.84;10293930;28;20061;-64
2022/06/05 16:12:20;;;;;;;4.85;2.38;;;;;;;29.36;37.85;97477.28;10293099;28;20061;-64
2022/06/05 16:17:41;;;;;;;2.72;2.35;;;;;;;29.29;37.43;97462.72;10292005;28;20699;-64
2022/06/05 16:23:17;;;;;;;3.33;2.22;;;;;;;29.24;36.55;97470.25;10292997;28;20057;-64
2022/06/05 16:28:28;;;;;;;5.20;2.35;;;;;;;29.12;36.58;97458.75;10290774;28;20073;-64
2022/06/05 16:33:49;;;;;;;4.88;2.53;;;;;;;29.38;37.48;97477.19;10292979;28;20065;-64
2022/06/05 16:38:56;;;;;;;4.07;2.72;;;;;;;29.33;37.86;97458.84;10288330;28;20156;-64
2022/06/05 16:43:58;;;;;;;4.05;2.55;;;;;;;29.52;36.60;97484.06;10292290;28;20061;-64
2022/06/05 16:49:02;;;;;;;3.55;2.88;;;;;;;29.43;36.54;97459.78;10290651;28;20061;-64
2022/06/05 16:54:10;;;;;;;7.97;2.55;;;;;;;29.49;36.48;97483.34;10287989;28;20076;-64
2022/06/05 16:59:25;;;;;;;4.60;2.75;;;;;;;29.56;37.73;97472.16;10292275;28;20520;-64
2022/06/05 17:04:24;;;;;;;5.32;2.53;;;;;;;29.69;38.74;97480.81;10288220;28;20119;-64
2022/06/05 17:09:23;;;;;;;6.10;2.60;;;;;;;29.47;37.74;97471.91;10291925;28;20030;-64
2022/06/05 17:14:39;;;;;;;4.95;2.83;;;;;;;29.34;39.67;97479.25;10290098;28;20088;-64
2022/06/05 17:19:40;;;;;;;9.10;4.28;;;;;;;29.04;40.65;97472.72;10289315;28;20065;-64
2022/06/05 17:24:48;;;;;;;6.72;3.97;;;;;;;28.76;41.62;97476.78;10290620;28;20465;-64
2022/06/05 17:30:14;;;;;;;8.00;3.97;;;;;;;28.41;42.73;97463.50;10288424;28;20061;-64
2022/06/05 17:35:25;;;;;;;5.35;4.00;;;;;;;27.98;43.05;97464.97;10277324;28;20098;-64
2022/06/05 17:40:51;;;;;;;5.10;3.85;;;;;;;27.62;43.26;97460.63;10287840;28;20061;-64
2022/06/05 17:45:58;;;;;;;7.13;4.10;;;;;;;27.22;44.07;97460.88;10290271;28;20065;-64
2022/06/05 17:51:15;;;;;;;7.05;3.50;;;;;;;26.82;44.95;97469.06;10291019;28;20489;-64
2022/06/05 17:56:21;;;;;;;5.47;3.72;;;;;;;26.43;45.71;97467.41;10296289;28;20065;-64
2022/06/05 18:01:26;;;;;;;6.13;3.35;;;;;;;25.96;46.69;97445.78;10296363;28;20069;-64
2022/06/05 18:06:32;;;;;;;6.50;3.45;;;;;;;25.69;47.85;97465.31;10297566;28;20061;-64
2022/06/05 18:11:33;;;;;;;5.15;2.97;;;;;;;25.32;49.00;97461.56;10297056;28;20062;-64
2022/06/05 18:16:35;;;;;;;4.53;3.38;;;;;;;24.70;49.84;97395.59;10300833;28;20064;-64
2022/06/05 18:21:39;;;;;;;5.75;3.55;;;;;;;24.81;50.45;97472.75;10298300;28;20469;-64
2022/06/05 18:26:52;;;;;;;7.03;3.65;;;;;;;24.61;51.18;97468.66;10299755;28;20057;-63
2022/06/05 18:32:17;;;;;;;8.88;4.15;;;;;;;24.28;52.81;97455.69;10298868;28;20057;-64
2022/06/05 18:42:37;;;;;;;7.45;3.20;;;;;;;23.83;54.17;97465.47;10298956;28;20057;-63
2022/06/05 18:47:44;;;;;;;8.50;3.50;;;;;;;23.59;54.89;97454.53;10296208;28;20062;-63
2022/06/05 18:52:43;;;;;;;10.48;4.20;;;;;;;23.47;55.27;97447.25;10280120;28;20061;-63
2022/06/05 18:57:43;;;;;;;8.80;4.30;;;;;;;23.32;56.31;97460.41;10297024;28;20065;-63
2022/06/05 19:02:59;;;;;;;7.80;4.78;;;;;;;23.27;56.77;97469.56;10297011;28;20072;-63
2022/06/05 19:07:59;;;;;;;9.10;5.30;;;;;;;23.23;59.10;97488.28;10297520;28;20065;-63
2022/06/05 19:13:07;;;;;;;10.25;6.78;;;;;;;23.14;59.66;97477.34;10295793;28;20472;-64
2022/06/05 19:18:32;;;;;;;12.50;5.72;;;;;;;23.09;60.22;97480.28;10295156;28;20084;-64
2022/06/05 19:23:50;;;;;;;14.25;6.03;;;;;;;22.81;62.54;97473.00;10291690;28;20154;-63
2022/06/05 19:28:57;;;;;;;9.13;5.47;;;;;;;22.46;64.99;97496.03;10294652;28;20057;-64
2022/06/05 19:34:07;;;;;;;6.95;4.45;;;;;;;22.17;66.39;97506.34;10292146;28;20088;-64
2022/06/05 19:39:34;;;;;;;7.88;4.43;;;;;;;22.05;66.15;97485.84;10293803;28;20080;-63
2022/06/05 19:44:35;;;;;;;7.00;5.10;;;;;;;21.97;66.01;97483.56;10292305;28;20085;-63
2022/06/05 19:49:43;;;;;;;9.90;5.05;;;;;;;21.91;66.41;97484.72;10292650;28;20499;-63
2022/06/05 19:54:43;;;;;;;14.52;5.25;;;;;;;21.90;66.29;97492.75;10291025;28;20056;-64
2022/06/05 20:00:04;;;;;;;7.80;4.28;;;;;;;21.93;65.71;97500.50;10293320;28;20057;-64
2022/06/05 20:05:05;;;;;;;10.23;4.30;;;;;;;21.88;65.88;97503.38;10294071;28;20469;-63
2022/06/05 20:10:18;;;;;;;9.07;4.50;;;;;;;21.72;66.20;97505.09;10292243;28;20080;-63
2022/06/05 20:15:24;;;;;;;7.25;4.65;;;;;;;21.64;66.26;97507.25;10292749;28;20060;-63
2022/06/05 20:20:37;;;;;;;8.77;4.22;;;;;;;21.64;67.24;97531.88;10291456;28;20073;-63
2022/06/05 20:25:44;;;;;;;8.65;4.80;;;;;;;21.48;67.73;97512.44;10290861;28;20069;-64
2022/06/05 20:31:04;;;;;;;9.07;4.28;;;;;;;21.41;69.62;97540.91;10290317;28;20065;-63
2022/06/05 20:36:14;;;;;;;9.77;5.05;;;;;;;21.31;69.85;97518.53;10292127;28;20054;-63
2022/06/05 20:41:27;;;;;;;9.55;5.30;;;;;;;21.23;69.89;97507.50;10291785;28;20057;-64
2022/06/05 20:46:30;;;;;;;10.23;5.10;;;;;;;21.16;70.55;97511.31;10281596;28;20152;-63
2022/06/05 20:51:29;;;;;;;10.32;4.88;;;;;;;21.09;70.89;97518.66;10282698;28;20114;-64
2022/06/05 20:56:28;;;;;;;7.32;4.60;;;;;;;21.03;70.96;97511.91;10282827;28;20030;-64
2022/06/05 21:01:28;;;;;;;9.07;4.75;;;;;;;20.93;70.57;97537.84;10283486;28;20112;-63
2022/06/05 21:17:13;;;;;;;17.67;9.43;;;;;;;20.34;75.07;97525.56;10268277;28;20571;-64
2022/06/05 21:22:13;;;;;;;17.30;8.88;;;;;;;20.16;75.14;97503.50;10282999;28;20573;-64
2022/06/05 21:27:57;;;;;;;13.70;8.50;;;;;;;20.27;75.53;97524.09;10288750;28;20124;-63
2022/06/05 21:33:01;;;;;;;7.95;5.47;;;;;;;19.73;75.98;97457.09;10280186;28;20774;-63
2022/06/05 21:38:22;;;;;;;11.02;6.80;;;;;;;20.06;76.59;97507.47;10281533;28;20184;-63
2022/06/05 21:43:26;;;;;;;10.02;6.40;;;;;;;19.81;76.73;97484.81;10288848;28;20124;-63
2022/06/05 21:48:38;;;;;;;10.45;6.03;;;;;;;19.83;76.98;97487.38;10285603;28;20113;-63
2022/06/05 21:53:43;;;;;;;8.00;5.60;;;;;;;19.95;77.11;97493.88;10279594;28;20121;-63
2022/06/05 21:58:43;;;;;;;8.65;6.10;;;;;;;19.89;77.33;97487.13;10289808;28;20556;-63
2022/06/05 22:03:42;;;;;;;9.05;5.65;;;;;;;19.86;77.62;97492.50;10288551;28;20113;-63
2022/06/05 22:08:41;;;;;;;8.10;5.75;;;;;;;19.78;77.16;97482.28;10288372;28;20042;-63
2022/06/05 22:13:40;;;;;;;8.00;4.90;;;;;;;19.48;76.67;97433.53;10288483;28;20137;-63
2022/06/05 22:18:39;;;;;;;9.57;5.55;;;;;;;19.66;76.62;97477.56;10287773;28;20041;-63
2022/06/05 22:23:40;;;;;;;13.65;6.55;;;;;;;19.15;80.13;97444.53;10285760;28;20043;-63
2022/06/05 22:28:39;;;;;;;10.90;6.40;;;;;;;18.89;81.10;97456.94;10286225;28;20145;-63
2022/06/05 22:33:38;;;;;;;9.98;6.80;;;;;;;18.51;83.05;97469.75;10286280;28;20038;-63
2022/06/05 22:38:38;;;;;;;12.02;8.25;;;;;;;18.48;83.37;97485.66;10287510;28;20108;-63
2022/06/05 22:43:37;;;;;;;14.13;9.05;;;;;;;18.40;83.11;97472.78;10285654;28;20065;-63
2022/06/05 22:48:36;;;;;;;13.40;7.95;;;;;;;18.45;83.00;97474.38;10287271;28;20121;-63
2022/06/05 22:53:36;;;;;;;9.73;5.95;;;;;;;18.50;82.84;97486.47;10287512;28;20145;-63
2022/06/05 22:58:36;;;;;;;11.05;5.53;;;;;;;18.53;82.69;97488.97;10288034;28;20112;-63
2022/06/05 23:03:35;;;;;;;7.35;4.90;;;;;;;18.47;82.52;97489.19;10287837;28;20195;-63
2022/06/05 23:08:34;;;;;;;7.25;4.65;;;;;;;18.42;82.40;97491.13;10286079;28;20708;-63
2022/06/05 23:13:33;;;;;;;8.40;5.03;;;;;;;18.52;82.17;97496.88;10289732;28;20021;-63
2022/06/05 23:23:51;;;;;;;11.95;6.90;;;;;;;18.37;81.98;97457.13;10290198;28;20070;-63
2022/06/05 23:28:50;;;;;;;10.18;6.50;;;;;;;18.49;82.71;97481.25;10270148;28;20472;-63
2022/06/05 23:33:49;;;;;;;8.68;5.20;;;;;;;18.54;83.59;97502.94;10289732;28;20026;-63
2022/06/05 23:38:47;;;;;;;6.07;4.68;;;;;;;18.37;84.37;97482.56;10271539;28;20022;-63
2022/06/05 23:43:47;;;;;;;9.88;5.97;;;;;;;18.23;84.40;97469.94;10289636;28;20018;-63
2022/06/05 23:48:46;;;;;;;9.00;5.88;;;;;;;18.24;85.07;97468.16;10297093;28;20727;-63
2022/06/05 23:53:46;;;;;;;12.93;7.32;;;;;;;18.15;85.09;97464.06;10297166;28;20068;-63
2022/06/05 23:58:45;;;;;;;13.30;9.20;;;;;;;18.11;85.20;97465.97;10305242;28;20061;-63
